Sisimiut, Greenland
Current Conditions -  °F | °C
As of 3:50 AM on Thursday 29 Jan 2015 (Local Time) from BGSF Reporting Station
Clear Clear  
Wind Chill: -37°   Ceiling: Unl
Heat Index: -18°   Visibility: 6mi
Dew Point: -27°   Wind: 8mph
Humidity: 63%   Direction: 50°NE
Pressure: 30.12"   Gusts: NA
Location:  66.92°N, 53.66°W
Report Text: BGSF 290550Z AUTO 05007KT 9999NDV NCD M28/M33 Q1020
Loading
Personal Weather Stations






























Interactive Weather Map New forecast layout! Learn more

10-Day Weather Forecast

Advertisements
Track Severe Weather on mobile